createdAt,value
2022-12-11T00:00:15.631Z,19.18
2022-12-11T00:02:45.708Z,17.36
2022-12-11T00:05:15.654Z,22.55
2022-12-11T00:07:45.743Z,23.73
2022-12-11T00:10:15.704Z,19.63
2022-12-11T00:12:45.728Z,23.1
2022-12-11T00:15:15.747Z,26.87
2022-12-11T00:17:45.800Z,23.42
2022-12-11T00:20:15.808Z,19.09
2022-12-11T00:22:45.814Z,17.1
2022-12-11T00:25:15.841Z,19.42
2022-12-11T00:27:45.888Z,21.04
2022-12-11T00:30:15.912Z,21.73
2022-12-11T00:32:45.924Z,23.31
2022-12-11T00:37:45.970Z,23.29
2022-12-11T00:40:15.988Z,21.99
2022-12-11T00:42:46.025Z,19.75
2022-12-11T00:45:16.050Z,32.81
2022-12-11T00:47:46.101Z,24.19
2022-12-11T00:50:16.102Z,25.97
2022-12-11T00:52:46.107Z,22.85
2022-12-11T00:55:16.124Z,21.94
2022-12-11T01:00:16.205Z,17.91
2022-12-11T01:02:46.233Z,24.62
2022-12-11T01:05:16.253Z,22.74
2022-12-11T01:07:46.292Z,25.15
2022-12-11T01:10:16.310Z,28.28
2022-12-11T01:12:46.295Z,29.45
2022-12-11T01:15:16.357Z,24.85
2022-12-11T01:20:16.383Z,23.89
2022-12-11T01:22:46.377Z,24.3
2022-12-11T01:27:46.441Z,21.3
2022-12-11T01:30:16.476Z,21.9
2022-12-11T01:32:46.484Z,25.01
2022-12-11T01:35:16.535Z,22.96
2022-12-11T01:37:46.550Z,30.37
2022-12-11T01:40:16.548Z,32.17
2022-12-11T01:42:46.595Z,25.3
2022-12-11T01:45:16.631Z,23.53
2022-12-11T01:47:46.654Z,21.26
2022-12-11T01:50:16.647Z,19.44
2022-12-11T01:52:46.686Z,27.24
2022-12-11T01:55:16.701Z,34
2022-12-11T02:00:16.766Z,35.63
2022-12-11T02:02:46.811Z,42.02
2022-12-11T02:07:46.901Z,30.78
2022-12-11T02:10:16.849Z,33.86
2022-12-11T02:12:46.868Z,29.27
2022-12-11T02:15:16.928Z,28.58
2022-12-11T02:17:46.931Z,25.74
2022-12-11T02:20:16.939Z,24.13
2022-12-11T02:22:46.962Z,24.84
2022-12-11T02:25:17.001Z,24.46
2022-12-11T02:27:47.010Z,35.36
2022-12-11T02:30:17.020Z,28.62
2022-12-11T02:32:47.058Z,27.67
2022-12-11T02:35:17.118Z,23.76
2022-12-11T02:40:17.129Z,18.11
2022-12-11T02:42:47.164Z,20.41
2022-12-11T02:45:17.187Z,20.54
2022-12-11T02:50:17.225Z,19.9
2022-12-11T02:52:47.253Z,22.55
2022-12-11T02:55:17.286Z,17.93
2022-12-11T02:57:47.304Z,21.89
2022-12-11T03:00:17.331Z,20.39
2022-12-11T03:02:47.416Z,20.4
2022-12-11T03:07:47.479Z,19.07
2022-12-11T03:10:17.410Z,23.83
2022-12-11T03:12:53.034Z,23.16
2022-12-11T03:15:17.468Z,24.79
2022-12-11T03:17:47.499Z,26.44
2022-12-11T03:20:17.521Z,31.98
2022-12-11T03:22:47.538Z,25.47
2022-12-11T03:25:17.594Z,24.92
2022-12-11T03:27:47.598Z,21.1
2022-12-11T03:32:47.646Z,26.7
2022-12-11T03:35:17.665Z,25.5
2022-12-11T03:37:47.688Z,28.91
2022-12-11T03:45:17.792Z,28.92
2022-12-11T03:47:47.788Z,27.64
2022-12-11T03:50:17.804Z,25.42
2022-12-11T03:52:47.856Z,28.12
2022-12-11T03:55:17.868Z,24.05
2022-12-11T03:57:47.876Z,27
2022-12-11T04:00:17.909Z,22.84
2022-12-11T04:02:47.925Z,23.41
2022-12-11T04:05:17.959Z,28.32
2022-12-11T04:07:48.013Z,23.52
2022-12-11T04:10:17.994Z,20.94
2022-12-11T04:12:48.016Z,21.63
2022-12-11T04:15:18.045Z,23.81
2022-12-11T04:17:48.083Z,23.84
2022-12-11T04:20:18.077Z,21.97
2022-12-11T04:22:48.120Z,19.04
2022-12-11T04:25:18.152Z,19.07
2022-12-11T04:27:48.149Z,24.15
2022-12-11T04:30:18.194Z,18.79
2022-12-11T04:32:48.219Z,22.69
2022-12-11T04:35:18.235Z,20.35
2022-12-11T04:37:48.267Z,23.97
2022-12-11T04:40:18.289Z,33.14
2022-12-11T04:42:48.323Z,31.34
2022-12-11T04:45:18.332Z,22.15
2022-12-11T04:47:48.368Z,25.84
2022-12-11T04:50:18.394Z,22.99
2022-12-11T04:52:48.408Z,27.37
2022-12-11T04:55:18.496Z,28.16
2022-12-11T04:57:48.445Z,28
2022-12-11T05:00:18.487Z,26.54
2022-12-11T05:02:48.608Z,21.91
2022-12-11T05:05:18.514Z,22.07
2022-12-11T05:07:48.577Z,20.97
2022-12-11T05:10:18.574Z,26.52
2022-12-11T05:12:48.599Z,26.84
2022-12-11T05:15:18.620Z,27.41
2022-12-11T05:20:18.664Z,32.46
2022-12-11T05:22:48.706Z,30.85
2022-12-11T05:25:18.722Z,27.07
2022-12-11T05:27:48.715Z,21.96
2022-12-11T05:30:18.762Z,22.97
2022-12-11T05:32:48.782Z,26.19
2022-12-11T05:35:18.809Z,25.96
2022-12-11T05:37:48.829Z,22.93
2022-12-11T05:40:18.865Z,24.35
2022-12-11T05:45:18.906Z,26.49
2022-12-11T05:47:48.915Z,32.71
2022-12-11T05:52:49.000Z,32.31
2022-12-11T05:57:49.024Z,29.07
2022-12-11T06:00:19.060Z,30.52
2022-12-11T06:02:49.191Z,32.48
2022-12-11T06:07:49.180Z,33.8
2022-12-11T06:10:19.150Z,36.01
2022-12-11T06:12:49.190Z,34.16
2022-12-11T06:17:49.219Z,27.74
2022-12-11T06:20:19.241Z,30.03
2022-12-11T06:22:49.252Z,29.67
2022-12-11T06:27:49.325Z,25.99
2022-12-11T06:30:19.338Z,25.83
2022-12-11T06:32:49.394Z,29.12
2022-12-11T06:35:19.388Z,25.78
2022-12-11T06:37:49.416Z,23.95
2022-12-11T06:40:19.433Z,27.25
2022-12-11T06:45:19.462Z,27.29
2022-12-11T06:47:49.500Z,25.23
2022-12-11T06:50:19.539Z,22.67
2022-12-11T06:52:49.537Z,23.7
2022-12-11T06:57:49.592Z,22.59
2022-12-11T07:00:19.641Z,22.77
2022-12-11T07:02:49.650Z,23.94
2022-12-11T07:07:49.727Z,25.25
2022-12-11T07:10:19.719Z,23.91
2022-12-11T07:12:49.745Z,27.67
2022-12-11T07:15:19.765Z,24.89
2022-12-11T07:20:19.798Z,27.41
2022-12-11T07:22:49.830Z,28.98
2022-12-11T07:30:19.902Z,18.55
2022-12-11T07:32:50.032Z,30.31
2022-12-11T07:35:19.954Z,27.94
2022-12-11T07:37:49.988Z,26.35
2022-12-11T07:40:19.994Z,25.09
2022-12-11T07:42:50.020Z,25.9
2022-12-11T07:45:20.074Z,22.48
2022-12-11T07:50:20.132Z,24.22
2022-12-11T07:57:50.190Z,27.94
2022-12-11T08:00:20.186Z,20.4
2022-12-11T08:02:50.265Z,21.82
2022-12-11T08:07:50.292Z,24.09
2022-12-11T08:10:20.286Z,28.23
2022-12-11T08:12:50.310Z,26.52
2022-12-11T08:15:20.344Z,26.22
2022-12-11T08:17:50.400Z,22.8
2022-12-11T08:20:20.370Z,25.05
2022-12-11T08:22:54.611Z,24.37
2022-12-11T08:25:20.434Z,22.09
2022-12-11T08:27:50.452Z,28.2
2022-12-11T08:30:20.494Z,30.1
2022-12-11T08:32:50.503Z,25.64
2022-12-11T08:35:20.544Z,26.28
2022-12-11T08:37:50.543Z,23.44
2022-12-11T08:40:20.570Z,27.18
2022-12-11T08:42:50.597Z,26.89
2022-12-11T08:45:20.627Z,26.42
2022-12-11T08:50:20.678Z,19.34
2022-12-11T08:52:50.684Z,19.01
2022-12-11T08:55:20.709Z,26.25
2022-12-11T08:57:50.733Z,20.19
2022-12-11T09:00:20.750Z,16.01
2022-12-11T09:02:50.824Z,17.72
2022-12-11T09:05:20.800Z,17.22
2022-12-11T09:07:50.894Z,17.95
2022-12-11T09:10:20.918Z,17.52
2022-12-11T09:12:50.886Z,18.45
2022-12-11T09:15:20.879Z,17.18
2022-12-11T09:17:50.910Z,16.45
2022-12-11T09:22:50.980Z,20.25
2022-12-11T09:25:20.989Z,17.28
2022-12-11T09:27:51.020Z,17.06
2022-12-11T09:30:21.054Z,17.34
2022-12-11T09:32:51.075Z,18.45
2022-12-11T09:35:21.079Z,19.46
2022-12-11T09:37:51.111Z,17.5
2022-12-11T09:40:21.144Z,17.91
2022-12-11T09:45:21.188Z,18.24
2022-12-11T09:47:51.215Z,15.23
2022-12-11T09:50:21.245Z,15.64
2022-12-11T09:52:51.266Z,13.51
2022-12-11T09:57:51.291Z,13.92
2022-12-11T10:00:21.338Z,19.63
2022-12-11T10:02:51.404Z,22.32
2022-12-11T10:07:51.438Z,18.53
2022-12-11T10:10:21.423Z,15.5
2022-12-11T10:12:51.432Z,13.01
2022-12-11T10:15:21.462Z,12.24
2022-12-11T10:17:51.480Z,14.24
2022-12-11T10:20:21.515Z,10.5
2022-12-11T10:22:51.551Z,12.73
2022-12-11T10:25:21.560Z,11.83
2022-12-11T10:27:51.643Z,13.53
2022-12-11T10:32:51.641Z,12.53
2022-12-11T10:35:21.640Z,12.2
2022-12-11T10:37:51.696Z,11.38
2022-12-11T10:40:21.709Z,11.35
2022-12-11T10:42:51.722Z,13.15
2022-12-11T10:45:21.759Z,14.42
2022-12-11T10:47:51.777Z,16.14
2022-12-11T10:50:21.790Z,14.8
2022-12-11T10:52:51.846Z,13.87
2022-12-11T10:55:21.866Z,15.12
2022-12-11T10:57:51.884Z,14.19
2022-12-11T11:00:21.879Z,11.89
2022-12-11T11:02:51.957Z,10.37
2022-12-11T11:05:21.938Z,10.75
2022-12-11T11:07:52.096Z,10.38
2022-12-11T11:10:21.995Z,11.13
2022-12-11T11:12:52.001Z,13.87
2022-12-11T11:15:22.034Z,13.04
2022-12-11T11:17:55.516Z,12.93
2022-12-11T11:22:52.094Z,14.17
2022-12-11T11:25:22.131Z,13.3
2022-12-11T11:27:52.179Z,11.45
2022-12-11T11:30:22.175Z,11.87
2022-12-11T11:35:22.247Z,15.95
2022-12-11T11:37:52.245Z,15.66
2022-12-11T11:40:22.270Z,15.38
2022-12-11T11:42:52.305Z,11.75
2022-12-11T11:45:22.315Z,17.56
2022-12-11T11:47:52.336Z,16.09
2022-12-11T11:50:22.383Z,15.04
2022-12-11T11:52:52.414Z,26.89
2022-12-11T11:55:23.018Z,18.64
2022-12-11T12:00:22.461Z,11.78
2022-12-11T12:02:52.494Z,11.27
2022-12-11T12:05:22.504Z,10.19
2022-12-11T12:12:52.594Z,14.47
2022-12-11T12:15:22.621Z,11.92
2022-12-11T12:17:55.788Z,9.84
2022-12-11T12:20:22.636Z,10.64
2022-12-11T12:22:52.667Z,11.75
2022-12-11T12:30:23.815Z,13.56
2022-12-11T12:32:52.760Z,12.87
2022-12-11T12:35:22.796Z,14.75
2022-12-11T12:37:52.824Z,13.11
2022-12-11T12:40:22.820Z,14.14
2022-12-11T12:42:52.882Z,13.81
2022-12-11T12:45:23.022Z,13.05
2022-12-11T12:47:53.615Z,12.92
2022-12-11T12:50:22.978Z,15.82
2022-12-11T12:52:52.985Z,15.52
2022-12-11T12:55:23.020Z,18.04
2022-12-11T12:57:53.019Z,16.31
2022-12-11T13:00:23.041Z,14.88
2022-12-11T13:02:53.100Z,12.91
2022-12-11T13:05:23.082Z,12.02
2022-12-11T13:12:53.211Z,16.01
2022-12-11T13:17:53.200Z,15.13
2022-12-11T13:20:23.219Z,13.26
2022-12-11T13:22:53.240Z,12.81
2022-12-11T13:25:23.265Z,12.78
2022-12-11T13:27:53.293Z,16.43
2022-12-11T13:30:23.329Z,14.26
2022-12-11T13:32:53.328Z,13.81
2022-12-11T13:35:23.367Z,13.49
2022-12-11T13:42:53.430Z,14.39
2022-12-11T13:45:23.506Z,14.03
2022-12-11T13:47:53.483Z,16.82
2022-12-11T13:50:23.493Z,15.89
2022-12-11T13:52:53.534Z,14.33
2022-12-11T14:00:23.610Z,14.19
2022-12-11T14:07:53.731Z,12.38
2022-12-11T14:10:23.686Z,13.68
2022-12-11T14:12:53.721Z,16
2022-12-11T14:15:23.747Z,13.54
2022-12-11T14:17:53.774Z,15.09
2022-12-11T14:20:23.805Z,17.07
2022-12-11T14:27:53.885Z,13.8
2022-12-11T14:30:23.892Z,14.52
2022-12-11T14:32:53.902Z,15.34
2022-12-11T14:37:53.956Z,15.48
2022-12-11T14:40:23.997Z,12.25
2022-12-11T14:42:58.595Z,10.67
2022-12-11T14:45:24.033Z,12.81
2022-12-11T14:47:54.047Z,16.38
2022-12-11T14:50:24.087Z,14.76
2022-12-11T14:57:54.159Z,15.99
2022-12-11T15:00:24.176Z,18.05
2022-12-11T15:02:54.222Z,17.86
2022-12-11T15:05:24.222Z,17.99
2022-12-11T15:07:54.322Z,19.73
2022-12-11T15:10:24.257Z,19.33
2022-12-11T15:12:54.286Z,18.11
2022-12-11T15:15:24.358Z,18.02
2022-12-11T15:20:24.345Z,14.9
2022-12-11T15:22:54.375Z,13.82
2022-12-11T15:25:24.420Z,16.91
2022-12-11T15:32:54.474Z,18.47
2022-12-11T15:35:24.511Z,16.86
2022-12-11T15:37:54.534Z,14.88
2022-12-11T15:40:24.555Z,14.69
2022-12-11T15:42:54.582Z,14.73
2022-12-11T15:50:24.678Z,14.47
2022-12-11T15:57:54.720Z,12.85
2022-12-11T16:00:24.737Z,15.85
2022-12-11T16:02:54.858Z,15.99
2022-12-11T16:05:24.794Z,15.82
2022-12-11T16:07:54.875Z,15.19
2022-12-11T16:10:24.850Z,18.71
2022-12-11T16:12:54.873Z,18.35
2022-12-11T16:20:24.941Z,17.69
2022-12-11T16:22:54.958Z,15.54
2022-12-11T16:25:24.990Z,15.38
2022-12-11T16:27:54.994Z,17.71
2022-12-11T16:30:25.040Z,18.91
2022-12-11T16:32:55.081Z,18.15
2022-12-11T16:40:25.132Z,19.86
2022-12-11T16:42:55.146Z,15.75
2022-12-11T16:45:25.176Z,15.36
2022-12-11T16:52:55.248Z,21.85
2022-12-11T16:55:25.249Z,19.8
2022-12-11T16:57:55.301Z,15.93
2022-12-11T17:00:25.329Z,15.97
2022-12-11T17:02:55.350Z,15.6
2022-12-11T17:05:25.355Z,16.64
2022-12-11T17:07:55.528Z,17.06
2022-12-11T17:10:25.430Z,15.53
2022-12-11T17:12:55.423Z,17.15
2022-12-11T17:15:25.438Z,16.24
2022-12-11T17:17:55.475Z,20.47
2022-12-11T17:20:25.490Z,18.92
2022-12-11T17:25:25.547Z,17.25
2022-12-11T17:27:55.575Z,14.39
2022-12-11T17:35:25.646Z,20.28
2022-12-11T17:37:55.666Z,17.48
2022-12-11T17:42:55.715Z,15.43
2022-12-11T17:45:25.742Z,17.78
2022-12-11T17:47:55.781Z,17.61
2022-12-11T17:52:55.827Z,15.28
2022-12-11T17:55:25.860Z,14.22
2022-12-11T17:57:55.872Z,13.03
2022-12-11T18:02:55.916Z,18.82
2022-12-11T18:10:25.966Z,14.65
2022-12-11T18:12:55.992Z,15.74
2022-12-11T18:15:26.029Z,15.68
2022-12-11T18:17:56.053Z,17.86
2022-12-11T18:20:26.052Z,14.36
2022-12-11T18:25:26.118Z,17.33
2022-12-11T18:27:56.132Z,15.97
2022-12-11T18:32:56.191Z,13.01
2022-12-11T18:35:26.244Z,16.51
2022-12-11T18:45:26.321Z,18.66
2022-12-11T18:47:56.320Z,19.9
2022-12-11T18:52:56.375Z,17.43
2022-12-11T18:55:26.412Z,16.01
2022-12-11T19:00:26.512Z,17.91
2022-12-11T19:02:56.479Z,16.28
2022-12-11T19:05:26.498Z,15.98
2022-12-11T19:07:56.590Z,19.38
2022-12-11T19:10:26.534Z,23
2022-12-11T19:17:56.601Z,18.94
2022-12-11T19:22:56.679Z,19.21
2022-12-11T19:25:26.702Z,19.85
2022-12-11T19:27:56.711Z,20.35
2022-12-11T19:30:26.724Z,17.46
2022-12-11T19:32:56.770Z,15.08
2022-12-11T19:35:26.769Z,16.27
2022-12-11T19:37:56.804Z,17.44
2022-12-11T19:40:26.826Z,21.39
2022-12-11T19:42:56.869Z,17.14
2022-12-11T19:45:26.864Z,20.11
2022-12-11T19:47:56.898Z,17.62
2022-12-11T19:50:26.949Z,16.03
2022-12-11T19:52:56.960Z,15.28
2022-12-11T19:55:26.969Z,20.72
2022-12-11T19:57:56.979Z,24.21
2022-12-11T20:00:27.041Z,20.32
2022-12-11T20:02:57.055Z,17.11
2022-12-11T20:05:27.073Z,16.72
2022-12-11T20:08:02.128Z,17.82
2022-12-11T20:10:27.131Z,17.36
2022-12-11T20:12:57.141Z,16.42
2022-12-11T20:17:57.200Z,20.55
2022-12-11T20:20:27.235Z,16.59
2022-12-11T20:22:57.241Z,17.91
2022-12-11T20:25:27.254Z,15.09
2022-12-11T20:30:27.300Z,15.88
2022-12-11T20:32:57.358Z,16.93
2022-12-11T20:35:27.335Z,18.59
2022-12-11T20:37:57.381Z,17.42
2022-12-11T20:40:27.416Z,17.31
2022-12-11T20:42:57.416Z,18.61
2022-12-11T20:45:27.521Z,14.41
2022-12-11T20:47:57.482Z,11.94
2022-12-11T20:50:27.521Z,15.12
2022-12-11T20:52:57.514Z,14.65
2022-12-11T20:55:27.529Z,13.79
2022-12-11T20:57:57.577Z,16.13
2022-12-11T21:00:27.606Z,15.69
2022-12-11T21:02:57.606Z,14.81
2022-12-11T21:05:27.647Z,16.11
2022-12-11T21:07:57.758Z,15.54
2022-12-11T21:10:27.675Z,18.51
2022-12-11T21:12:57.705Z,18.04
2022-12-11T21:15:27.736Z,18.55
2022-12-11T21:17:57.765Z,20.69
2022-12-11T21:20:27.775Z,17.71
2022-12-11T21:22:57.835Z,19.03
2022-12-11T21:25:27.827Z,18.15
2022-12-11T21:27:57.849Z,18.43
2022-12-11T21:30:27.866Z,19.05
2022-12-11T21:32:57.908Z,20.3
2022-12-11T21:35:27.933Z,19.76
2022-12-11T21:37:57.947Z,17.33
2022-12-11T21:40:27.961Z,16.21
2022-12-11T21:42:57.983Z,20.78
2022-12-11T21:46:01.162Z,19.09
2022-12-11T21:47:58.039Z,17.76
2022-12-11T21:50:28.078Z,16.83
2022-12-11T21:52:58.113Z,18.09
2022-12-11T22:00:28.185Z,15.57
2022-12-11T22:02:58.196Z,17.17
2022-12-11T22:07:58.388Z,16.99
2022-12-11T22:10:28.285Z,14.29
2022-12-11T22:12:58.293Z,12.74
2022-12-11T22:17:58.317Z,14.07
2022-12-11T22:25:28.410Z,15.99
2022-12-11T22:27:58.434Z,20.78
2022-12-11T22:30:28.466Z,17.06
2022-12-11T22:32:58.476Z,19.07
2022-12-11T22:35:28.502Z,17.93
2022-12-11T22:37:58.508Z,16.42
2022-12-11T22:40:28.560Z,15.88
2022-12-11T22:42:58.582Z,16
2022-12-11T22:45:28.598Z,13.72
2022-12-11T22:50:28.646Z,14.95
2022-12-11T22:52:58.678Z,17.32
2022-12-11T22:55:28.691Z,15.77
2022-12-11T22:57:58.714Z,16.69
2022-12-11T23:00:28.770Z,14.81
2022-12-11T23:02:58.940Z,15.01
2022-12-11T23:05:28.774Z,13.35
2022-12-11T23:07:58.884Z,14.04
2022-12-11T23:10:28.828Z,19.57
2022-12-11T23:12:58.886Z,17.99
2022-12-11T23:15:28.883Z,18.43
2022-12-11T23:17:58.904Z,17.77
2022-12-11T23:20:28.939Z,24.66
2022-12-11T23:22:58.955Z,22.67
2022-12-11T23:25:28.977Z,19.84
2022-12-11T23:27:59.012Z,18.01
2022-12-11T23:32:59.042Z,16.72
2022-12-11T23:35:29.074Z,16.61
2022-12-11T23:37:59.097Z,17.5
2022-12-11T23:40:29.125Z,18.59
2022-12-11T23:42:59.137Z,15.9
2022-12-11T23:45:29.179Z,14.72
2022-12-11T23:47:59.195Z,13.85
2022-12-11T23:50:29.208Z,13.09
2022-12-11T23:52:59.256Z,12.67
2022-12-11T23:55:29.253Z,12.64
2022-12-11T23:57:59.288Z,13.14
